createdAt,value
2022-09-01T00:00:48.017Z,101260.31
2022-09-01T00:03:18.503Z,101253.66
2022-09-01T00:05:48.937Z,101254.34
2022-09-01T00:08:17.683Z,101247.34
2022-09-01T00:10:47.319Z,101249.31
2022-09-01T00:13:15.673Z,101249.75
2022-09-01T00:15:44.329Z,101254.50
2022-09-01T00:18:13.593Z,101248.81
2022-09-01T00:20:43.303Z,101255.97
2022-09-01T00:23:11.530Z,101251.72
2022-09-01T00:25:40.176Z,101251.72
2022-09-01T00:28:08.324Z,101252.50
2022-09-01T00:30:36.715Z,101254.59
2022-09-01T00:33:05.311Z,101249.72
2022-09-01T00:35:37.327Z,101242.72
2022-09-01T00:38:07.382Z,101252.91
2022-09-01T00:40:35.561Z,101246.84
2022-09-01T00:43:13.104Z,101250.59
2022-09-01T00:45:42.681Z,101248.94
2022-09-01T00:48:10.862Z,101246.31
2022-09-01T00:50:40.038Z,101244.81
2022-09-01T00:53:10.912Z,101243.34
2022-09-01T00:55:39.383Z,101241.00
2022-09-01T00:58:18.396Z,101242.91
2022-09-01T01:00:51.981Z,101236.19
2022-09-01T01:03:21.291Z,101239.06
2022-09-01T01:05:54.904Z,101245.38
2022-09-01T01:08:33.995Z,101244.69
2022-09-01T01:11:03.740Z,101243.50
2022-09-01T01:13:36.356Z,101251.25
2022-09-01T01:16:12.000Z,101239.72
2022-09-01T01:18:40.265Z,101246.44
2022-09-01T01:21:33.962Z,101240.75
2022-09-01T01:24:07.687Z,101230.97
2022-09-01T01:26:37.997Z,101227.38
2022-09-01T01:29:09.911Z,101237.53
2022-09-01T01:31:38.523Z,101236.53
2022-09-01T01:34:07.936Z,101239.59
2022-09-01T01:36:41.140Z,101239.41
2022-09-01T01:39:11.784Z,101229.22
2022-09-01T01:41:45.169Z,101246.56
2022-09-01T01:44:15.275Z,101249.44
2022-09-01T01:46:47.186Z,101244.94
2022-09-01T01:49:19.955Z,101247.41
2022-09-01T01:51:49.837Z,101254.44
2022-09-01T01:54:18.920Z,101259.03
2022-09-01T01:56:48.351Z,101246.47
2022-09-01T01:59:16.443Z,101260.25
2022-09-01T02:01:51.329Z,101255.53
2022-09-01T02:04:21.072Z,101264.91
2022-09-01T02:06:50.281Z,101269.00
2022-09-01T02:09:21.180Z,101267.13
2022-09-01T02:11:53.598Z,101261.47
2022-09-01T02:14:22.212Z,101262.91
2022-09-01T02:16:50.942Z,101268.19
2022-09-01T02:19:21.049Z,101262.59
2022-09-01T02:21:54.151Z,101263.72
2022-09-01T02:24:23.953Z,101256.91
2022-09-01T02:26:53.466Z,101252.53
2022-09-01T02:29:23.901Z,101253.22
2022-09-01T02:31:54.787Z,101261.56
2022-09-01T02:34:25.897Z,101263.22
2022-09-01T02:36:55.160Z,101261.56
2022-09-01T02:39:25.724Z,101259.03
2022-09-01T02:41:55.513Z,101262.88
2022-09-01T02:44:23.660Z,101262.41
2022-09-01T02:46:52.356Z,101268.50
2022-09-01T02:49:29.922Z,101259.22
2022-09-01T02:52:01.492Z,101259.41
2022-09-01T02:54:32.908Z,101257.78
2022-09-01T02:57:03.198Z,101261.66
2022-09-01T02:59:31.807Z,101258.78
2022-09-01T03:02:00.047Z,101264.28
2022-09-01T03:04:28.948Z,101260.91
2022-09-01T03:06:58.698Z,101260.00
2022-09-01T03:09:28.009Z,101254.31
2022-09-01T03:11:56.664Z,101251.31
2022-09-01T03:14:26.585Z,101259.34
2022-09-01T03:16:54.865Z,101259.13
2022-09-01T03:19:23.197Z,101260.56
2022-09-01T03:21:51.521Z,101258.91
2022-09-01T03:24:20.018Z,101260.03
2022-09-01T03:26:51.346Z,101261.81
2022-09-01T03:29:20.340Z,101268.13
2022-09-01T03:31:50.320Z,101264.09
2022-09-01T03:34:21.670Z,101264.47
2022-09-01T03:36:51.097Z,101263.44
2022-09-01T03:39:19.893Z,101263.56
2022-09-01T03:41:48.095Z,101269.22
2022-09-01T03:44:16.300Z,101259.94
2022-09-01T03:46:45.216Z,101264.84
2022-09-01T03:49:24.945Z,101255.66
2022-09-01T03:51:53.843Z,101256.84
2022-09-01T03:54:24.828Z,101262.13
2022-09-01T03:56:54.966Z,101262.50
2022-09-01T03:59:25.773Z,101254.78
2022-09-01T04:01:54.363Z,101258.66
2022-09-01T04:04:24.597Z,101257.38
2022-09-01T04:06:52.707Z,101260.50
2022-09-01T04:09:20.936Z,101255.53
2022-09-01T04:11:51.635Z,101256.56
2022-09-01T04:14:20.343Z,101257.09
2022-09-01T04:17:06.251Z,101250.78
2022-09-01T04:19:39.472Z,101262.06
2022-09-01T04:22:13.483Z,101260.34
2022-09-01T04:24:46.201Z,101259.69
2022-09-01T04:27:18.043Z,101257.44
2022-09-01T04:29:46.940Z,101261.50
2022-09-01T04:32:15.875Z,101256.41
2022-09-01T04:34:45.506Z,101254.78
2022-09-01T04:37:18.144Z,101255.31
2022-09-01T04:39:55.626Z,101260.19
2022-09-01T04:42:27.168Z,101255.81
2022-09-01T04:44:57.505Z,101253.06
2022-09-01T04:47:31.703Z,101247.66
2022-09-01T04:50:14.142Z,101257.22
2022-09-01T04:52:43.111Z,101258.13
2022-09-01T04:55:17.677Z,101261.47
2022-09-01T04:57:47.575Z,101257.81
2022-09-01T05:00:23.367Z,101253.00
2022-09-01T05:02:53.762Z,101260.03
2022-09-01T05:05:24.757Z,101261.00
2022-09-01T05:07:55.465Z,101257.84
2022-09-01T05:10:29.820Z,101258.06
2022-09-01T05:12:58.407Z,101263.38
2022-09-01T05:15:26.533Z,101255.53
2022-09-01T05:17:54.688Z,101257.19
2022-09-01T05:20:25.065Z,101263.19
2022-09-01T05:22:57.445Z,101253.31
2022-09-01T05:25:27.409Z,101258.91
2022-09-01T05:27:55.786Z,101258.09
2022-09-01T05:30:28.732Z,101261.66
2022-09-01T05:32:57.061Z,101260.00
2022-09-01T05:35:32.365Z,101263.50
2022-09-01T05:38:02.418Z,101262.78
2022-09-01T05:40:30.658Z,101257.59
2022-09-01T05:42:59.346Z,101266.75
2022-09-01T05:45:28.028Z,101269.63
2022-09-01T05:47:57.052Z,101272.28
2022-09-01T05:50:28.206Z,101274.94
2022-09-01T05:52:56.479Z,101260.78
2022-09-01T05:55:27.796Z,101264.13
2022-09-01T05:57:57.203Z,101271.28
2022-09-01T06:00:34.961Z,101269.41
2022-09-01T06:03:11.004Z,101276.97
2022-09-01T06:05:41.130Z,101273.50
2022-09-01T06:08:10.669Z,101276.16
2022-09-01T06:10:39.956Z,101275.22
2022-09-01T06:13:09.368Z,101285.72
2022-09-01T06:15:39.855Z,101284.50
2022-09-01T06:18:09.163Z,101281.63
2022-09-01T06:20:41.705Z,101285.78
2022-09-01T06:23:12.571Z,101277.41
2022-09-01T06:25:42.256Z,101281.06
2022-09-01T06:28:13.673Z,101283.56
2022-09-01T06:30:42.656Z,101280.06
2022-09-01T06:33:14.061Z,101285.84
2022-09-01T06:35:47.183Z,101286.53
2022-09-01T06:38:19.317Z,101290.16
2022-09-01T06:40:48.697Z,101286.81
2022-09-01T06:43:19.606Z,101300.69
2022-09-01T06:45:54.196Z,101302.50
2022-09-01T06:48:23.558Z,101303.38
2022-09-01T06:53:41.591Z,101294.13
2022-09-01T06:56:13.461Z,101297.25
2022-09-01T06:58:44.993Z,101295.97
2022-09-01T07:01:15.383Z,101299.59
2022-09-01T07:04:12.795Z,101296.72
2022-09-01T07:09:47.972Z,101308.34
2022-09-01T07:12:27.842Z,101303.31
2022-09-01T07:17:48.965Z,101301.03
2022-09-01T07:20:25.288Z,101297.59
2022-09-01T07:23:05.719Z,101306.16
2022-09-01T07:28:36.075Z,101291.34
2022-09-01T07:34:38.456Z,101296.06
2022-09-01T07:39:52.541Z,101293.00
2022-09-01T07:45:28.875Z,101306.03
2022-09-01T07:48:00.024Z,101289.78
2022-09-01T07:53:22.485Z,101279.72
2022-09-01T07:55:53.550Z,101286.91
2022-09-01T07:58:23.748Z,101285.78
2022-09-01T08:00:53.209Z,101283.91
2022-09-01T08:03:24.184Z,101289.38
2022-09-01T08:05:57.651Z,101298.03
2022-09-01T08:08:29.095Z,101284.44
2022-09-01T08:11:06.327Z,101285.41
2022-09-01T08:13:41.204Z,101288.19
2022-09-01T08:16:18.911Z,101282.16
2022-09-01T08:18:49.129Z,101289.38
2022-09-01T08:21:21.945Z,101284.59
2022-09-01T08:23:50.956Z,101289.22
2022-09-01T08:26:23.161Z,101295.41
2022-09-01T08:28:56.151Z,101287.25
2022-09-01T08:31:30.663Z,101284.94
2022-09-01T08:34:00.150Z,101288.28
2022-09-01T08:36:28.301Z,101293.28
2022-09-01T08:38:56.628Z,101292.69
2022-09-01T08:41:47.165Z,101285.53
2022-09-01T08:44:28.458Z,101287.63
2022-09-01T08:47:02.754Z,101277.75
2022-09-01T08:49:42.130Z,101279.69
2022-09-01T08:52:22.974Z,101282.50
2022-09-01T08:54:54.949Z,101281.09
2022-09-01T08:57:27.897Z,101284.16
2022-09-01T08:59:56.792Z,101273.91
2022-09-01T09:02:38.771Z,101277.91
2022-09-01T09:05:16.742Z,101274.28
2022-09-01T09:08:08.232Z,101264.16
2022-09-01T09:10:47.961Z,101271.78
2022-09-01T09:13:25.569Z,101264.03
2022-09-01T09:16:07.760Z,101268.03
2022-09-01T09:18:54.860Z,101266.97
2022-09-01T09:21:28.005Z,101265.09
2022-09-01T09:24:01.619Z,101257.91
2022-09-01T09:26:42.341Z,101265.72
2022-09-01T09:29:12.935Z,101271.44
2022-09-01T09:31:50.051Z,101252.38
2022-09-01T09:34:33.261Z,101255.28
2022-09-01T09:37:24.688Z,101250.91
2022-09-01T09:40:12.217Z,101242.28
2022-09-01T09:42:43.196Z,101243.97
2022-09-01T09:45:24.708Z,101242.72
2022-09-01T09:47:54.220Z,101250.63
2022-09-01T09:50:31.666Z,101251.75
2022-09-01T09:53:19.202Z,101249.69
2022-09-01T09:55:56.427Z,101239.41
2022-09-01T09:58:27.753Z,101239.28
2022-09-01T10:01:03.966Z,101233.63
2022-09-01T10:03:42.036Z,101229.47
2022-09-01T10:06:17.836Z,101224.09
2022-09-01T10:08:48.175Z,101223.22
2022-09-01T10:11:35.420Z,101239.59
2022-09-01T10:14:07.539Z,101215.56
2022-09-01T10:16:39.830Z,101218.78
2022-09-01T10:19:13.708Z,101213.94
2022-09-01T10:21:46.075Z,101211.28
2022-09-01T10:24:26.918Z,101227.28
2022-09-01T10:27:02.396Z,101209.91
2022-09-01T10:29:35.248Z,101216.34
2022-09-01T10:32:35.019Z,101205.38
2022-09-01T10:35:07.363Z,101205.47
2022-09-01T10:37:36.045Z,101197.22
2022-09-01T10:40:43.327Z,101206.50
2022-09-01T10:43:41.564Z,101209.59
2022-09-01T10:46:50.451Z,101192.56
2022-09-01T10:49:50.695Z,101188.56
2022-09-01T10:52:54.034Z,101184.56
2022-09-01T10:55:26.227Z,101182.75
2022-09-01T11:01:35.003Z,101177.06
2022-09-01T11:04:05.041Z,101181.03
2022-09-01T11:09:45.114Z,101173.09
2022-09-01T11:12:29.837Z,101179.19
2022-09-01T11:15:00.608Z,101184.22
2022-09-01T11:17:31.835Z,101173.38
2022-09-01T11:20:08.724Z,101188.94
2022-09-01T11:22:41.533Z,101188.28
2022-09-01T11:25:40.104Z,101172.09
2022-09-01T11:28:53.366Z,101163.38
2022-09-01T11:31:26.819Z,101171.00
2022-09-01T11:34:17.285Z,101173.63
2022-09-01T11:36:58.919Z,101177.13
2022-09-01T11:39:35.896Z,101172.25
2022-09-01T11:42:10.116Z,101155.88
2022-09-01T11:44:45.728Z,101157.06
2022-09-01T11:47:18.138Z,101167.22
2022-09-01T11:49:53.516Z,101163.94
2022-09-01T11:52:24.546Z,101173.47
2022-09-01T11:54:55.377Z,101158.22
2022-09-01T11:57:29.982Z,101166.06
2022-09-01T12:00:00.393Z,101171.44
2022-09-01T12:02:33.682Z,101161.44
2022-09-01T12:05:26.223Z,101156.09
2022-09-01T12:07:55.232Z,101146.63
2022-09-01T12:10:32.811Z,101159.06
2022-09-01T12:13:03.350Z,101146.19
2022-09-01T12:15:31.663Z,101150.88
2022-09-01T12:18:14.053Z,101137.22
2022-09-01T12:20:42.837Z,101136.03
2022-09-01T12:23:24.028Z,101135.72
2022-09-01T12:25:55.808Z,101138.38
2022-09-01T12:28:24.990Z,101126.28
2022-09-01T12:30:55.637Z,101133.56
2022-09-01T12:33:25.654Z,101123.38
2022-09-01T12:36:12.450Z,101124.41
2022-09-01T12:38:41.077Z,101123.91
2022-09-01T12:44:37.123Z,101114.97
2022-09-01T12:47:09.847Z,101118.53
2022-09-01T12:49:50.577Z,101117.41
2022-09-01T12:52:26.258Z,101111.31
2022-09-01T12:55:12.488Z,101116.59
2022-09-01T12:57:48.544Z,101094.09
2022-09-01T13:00:20.360Z,101099.00
2022-09-01T13:02:53.210Z,101093.81
2022-09-01T13:05:31.916Z,101087.50
2022-09-01T13:08:04.104Z,101087.84
2022-09-01T13:10:35.699Z,101086.13
2022-09-01T13:13:04.131Z,101089.72
2022-09-01T13:15:33.448Z,101082.59
2022-09-01T13:18:03.410Z,101079.59
2022-09-01T13:20:31.842Z,101082.84
2022-09-01T13:23:00.172Z,101081.78
2022-09-01T13:25:28.673Z,101085.03
2022-09-01T13:27:56.976Z,101070.13
2022-09-01T13:30:28.393Z,101069.84
2022-09-01T13:35:48.914Z,101075.16
2022-09-01T13:38:18.048Z,101063.97
2022-09-01T13:40:47.961Z,101060.50
2022-09-01T13:43:17.548Z,101063.47
2022-09-01T13:45:45.902Z,101069.34
2022-09-01T13:48:15.853Z,101067.91
2022-09-01T13:53:36.589Z,101059.97
2022-09-01T13:56:05.408Z,101054.22
2022-09-01T13:58:33.609Z,101057.22
2022-09-01T14:01:02.369Z,101046.94
2022-09-01T14:03:32.195Z,101041.94
2022-09-01T14:06:00.867Z,101053.22
2022-09-01T14:08:30.781Z,101049.84
2022-09-01T14:11:00.648Z,101041.53
2022-09-01T14:13:31.102Z,101034.66
2022-09-01T14:16:00.143Z,101027.44
2022-09-01T14:18:32.907Z,101041.72
2022-09-01T14:21:01.519Z,101041.47
2022-09-01T14:23:30.107Z,101044.25
2022-09-01T14:26:00.454Z,101030.38
2022-09-01T14:28:28.837Z,101033.44
2022-09-01T14:33:27.301Z,101025.97
2022-09-01T14:35:55.682Z,101021.97
2022-09-01T14:38:24.068Z,101014.34
2022-09-01T14:40:53.263Z,101026.34
2022-09-01T14:43:23.222Z,101017.34
2022-09-01T14:45:52.013Z,101012.78
2022-09-01T14:48:21.558Z,101024.06
2022-09-01T14:51:01.049Z,101024.38
2022-09-01T14:53:31.028Z,101011.78
2022-09-01T14:56:00.256Z,101016.91
2022-09-01T14:58:30.890Z,101011.63
2022-09-01T15:01:17.570Z,101009.09
2022-09-01T15:03:48.999Z,101009.13
2022-09-01T15:06:19.846Z,101007.50
2022-09-01T15:08:57.512Z,100996.22
2022-09-01T15:11:28.452Z,100995.44
2022-09-01T15:13:58.812Z,101003.06
2022-09-01T15:16:28.641Z,101001.03
2022-09-01T15:18:56.852Z,100996.09
2022-09-01T15:21:28.570Z,101000.06
2022-09-01T15:23:57.575Z,100998.47
2022-09-01T15:26:28.237Z,100985.66
2022-09-01T15:28:58.833Z,100987.31
2022-09-01T15:31:32.363Z,100986.47
2022-09-01T15:34:03.863Z,100986.84
2022-09-01T15:36:36.331Z,100983.09
2022-09-01T15:39:05.153Z,100982.56
2022-09-01T15:41:34.652Z,100987.53
2022-09-01T15:44:06.985Z,100987.56
2022-09-01T15:46:35.998Z,100987.31
2022-09-01T15:49:08.717Z,100986.28
2022-09-01T15:51:39.005Z,100973.13
2022-09-01T15:54:10.017Z,100976.75
2022-09-01T15:56:38.595Z,100974.28
2022-09-01T15:59:09.149Z,100975.28
2022-09-01T16:01:40.511Z,100969.44
2022-09-01T16:04:15.826Z,100979.22
2022-09-01T16:06:46.651Z,100983.84
2022-09-01T16:09:15.105Z,100981.34
2022-09-01T16:11:43.397Z,100972.53
2022-09-01T16:14:14.094Z,100966.94
2022-09-01T16:16:54.505Z,100965.31
2022-09-01T16:19:33.840Z,100959.31
2022-09-01T16:22:11.926Z,100958.81
2022-09-01T16:24:44.341Z,100963.03
2022-09-01T16:27:15.666Z,100951.31
2022-09-01T16:29:49.676Z,100958.47
2022-09-01T16:32:21.295Z,100952.41
2022-09-01T16:34:51.383Z,100959.56
2022-09-01T16:37:46.000Z,100960.25
2022-09-01T16:40:28.052Z,100958.09
2022-09-01T16:43:05.150Z,100958.84
2022-09-01T16:45:45.136Z,100949.97
2022-09-01T16:48:20.190Z,100947.53
2022-09-01T16:50:57.651Z,100956.94
2022-09-01T16:53:50.464Z,100944.84
2022-09-01T16:56:26.091Z,100953.66
2022-09-01T16:59:03.213Z,100950.38
2022-09-01T17:01:45.357Z,100943.97
2022-09-01T17:04:29.108Z,100942.63
2022-09-01T17:07:04.026Z,100943.75
2022-09-01T17:09:35.641Z,100953.25
2022-09-01T17:12:23.349Z,100949.53
2022-09-01T17:14:58.350Z,100951.50
2022-09-01T17:17:43.266Z,100943.44
2022-09-01T17:20:13.993Z,100947.66
2022-09-01T17:22:54.263Z,100947.00
2022-09-01T17:25:29.740Z,100948.00
2022-09-01T17:28:02.337Z,100951.84
2022-09-01T17:30:35.420Z,100950.53
2022-09-01T17:33:18.365Z,100953.50
2022-09-01T17:36:03.524Z,100955.72
2022-09-01T17:38:49.061Z,100954.78
2022-09-01T17:41:25.002Z,100964.97
2022-09-01T17:44:03.004Z,100957.66
2022-09-01T17:46:38.681Z,100952.94
2022-09-01T17:49:16.903Z,100952.50
2022-09-01T17:51:55.319Z,100953.91
2022-09-01T17:54:32.024Z,100954.41
2022-09-01T17:57:11.262Z,100952.41
2022-09-01T17:59:44.791Z,100957.75
2022-09-01T18:02:30.970Z,100947.16
2022-09-01T18:05:09.707Z,100948.44
2022-09-01T18:07:56.794Z,100953.81
2022-09-01T18:10:31.414Z,100954.38
2022-09-01T18:13:05.105Z,100956.78
2022-09-01T18:15:43.974Z,100955.09
2022-09-01T18:18:27.840Z,100958.13
2022-09-01T18:21:04.460Z,100958.69
2022-09-01T18:23:38.199Z,100955.72
2022-09-01T18:26:15.570Z,100963.69
2022-09-01T18:28:44.288Z,100959.38
2022-09-01T18:31:24.726Z,100959.38
2022-09-01T18:34:07.799Z,100956.84
2022-09-01T18:36:48.994Z,100966.59
2022-09-01T18:39:22.866Z,100966.13
2022-09-01T18:42:03.252Z,100969.16
2022-09-01T18:44:44.338Z,100976.88
2022-09-01T18:47:15.590Z,100975.06
2022-09-01T18:49:55.780Z,100981.06
2022-09-01T18:52:44.732Z,100974.34
2022-09-01T18:55:22.091Z,100979.00
2022-09-01T18:57:54.555Z,100987.56
2022-09-01T19:00:30.750Z,100977.78
2022-09-01T19:03:08.051Z,100985.44
2022-09-01T19:05:54.933Z,100986.50
2022-09-01T19:08:48.818Z,100989.53
2022-09-01T19:11:27.892Z,100985.00
2022-09-01T19:14:04.549Z,100990.38
2022-09-01T19:16:50.001Z,100995.22
2022-09-01T19:19:31.496Z,101000.06
2022-09-01T19:22:01.525Z,100999.25
2022-09-01T19:24:36.730Z,100999.25
2022-09-01T19:27:11.128Z,100999.72
2022-09-01T19:29:52.415Z,101003.78
2022-09-01T19:32:23.493Z,101007.38
2022-09-01T19:34:57.375Z,101005.06
2022-09-01T19:37:27.450Z,101002.53
2022-09-01T19:39:57.198Z,101005.88
2022-09-01T19:42:32.708Z,101006.44
2022-09-01T19:45:07.330Z,101011.63
2022-09-01T19:47:42.850Z,101016.13
2022-09-01T19:50:19.952Z,101014.31
2022-09-01T19:52:56.694Z,101018.91
2022-09-01T19:55:31.710Z,101014.75
2022-09-01T19:58:04.464Z,101012.91
2022-09-01T20:00:51.003Z,101018.88
2022-09-01T20:03:26.989Z,101017.84
2022-09-01T20:05:58.804Z,101013.56
2022-09-01T20:08:34.820Z,101009.25
2022-09-01T20:11:14.632Z,101007.50
2022-09-01T20:13:55.940Z,101007.25
2022-09-01T20:16:31.467Z,101012.53
2022-09-01T20:19:06.280Z,101018.31
2022-09-01T20:21:42.375Z,101011.63
2022-09-01T20:24:18.911Z,101013.88
2022-09-01T20:26:59.511Z,101012.25
2022-09-01T20:29:44.568Z,101017.59
2022-09-01T20:32:17.825Z,101012.94
2022-09-01T20:34:55.035Z,101015.09
2022-09-01T20:37:37.769Z,101012.88
2022-09-01T20:40:09.869Z,101006.06
2022-09-01T20:42:46.398Z,101009.03
2022-09-01T20:45:17.314Z,101008.50
2022-09-01T20:47:50.378Z,101006.13
2022-09-01T20:50:21.477Z,100998.66
2022-09-01T20:53:04.724Z,101013.50
2022-09-01T20:55:40.180Z,101015.31
2022-09-01T20:58:16.956Z,101009.97
2022-09-01T21:00:51.765Z,101008.16
2022-09-01T21:03:34.125Z,101009.97
2022-09-01T21:06:15.072Z,101015.03
2022-09-01T21:08:49.047Z,101012.38
2022-09-01T21:11:30.046Z,101007.06
2022-09-01T21:14:14.353Z,101003.94
2022-09-01T21:16:57.455Z,101005.56
2022-09-01T21:19:33.135Z,101009.47
2022-09-01T21:22:07.036Z,101005.22
2022-09-01T21:24:36.471Z,101009.34
2022-09-01T21:27:09.421Z,101006.50
2022-09-01T21:29:50.898Z,101019.38
2022-09-01T21:32:19.718Z,101011.16
2022-09-01T21:34:53.737Z,101014.00
2022-09-01T21:37:23.752Z,101006.69
2022-09-01T21:39:53.523Z,101003.59
2022-09-01T21:42:23.839Z,101005.06
2022-09-01T21:44:55.961Z,100999.81
2022-09-01T21:47:24.860Z,101001.81
2022-09-01T21:49:53.277Z,100999.56
2022-09-01T21:52:21.698Z,100994.88
2022-09-01T21:54:50.110Z,101006.09
2022-09-01T21:57:20.923Z,101004.47
2022-09-01T21:59:49.419Z,100995.22
2022-09-01T22:02:20.132Z,101000.28
2022-09-01T22:04:49.260Z,100999.19
2022-09-01T22:07:21.096Z,100994.16
2022-09-01T22:09:49.968Z,101002.63
2022-09-01T22:12:18.492Z,100997.41
2022-09-01T22:14:46.695Z,100986.06
2022-09-01T22:17:14.895Z,100990.25
2022-09-01T22:19:44.872Z,100992.56
2022-09-01T22:22:13.531Z,100995.38
2022-09-01T22:24:41.855Z,100983.50
2022-09-01T22:27:10.117Z,100986.44
2022-09-01T22:29:39.252Z,100978.81
2022-09-01T22:32:08.761Z,100980.28
2022-09-01T22:34:37.508Z,100984.88
2022-09-01T22:37:08.585Z,100980.16
2022-09-01T22:39:36.896Z,100977.72
2022-09-01T22:42:05.670Z,100977.56
2022-09-01T22:44:33.920Z,100983.41
2022-09-01T22:47:05.853Z,100981.78
2022-09-01T22:49:34.439Z,100985.34
2022-09-01T22:52:03.159Z,100980.66
2022-09-01T22:54:33.497Z,100986.81
2022-09-01T22:57:02.178Z,100986.66
2022-09-01T22:59:30.605Z,100979.88
2022-09-01T23:02:01.355Z,100980.69
2022-09-01T23:04:32.108Z,100987.00
2022-09-01T23:07:01.060Z,100984.56
2022-09-01T23:09:29.738Z,100987.81
2022-09-01T23:11:59.847Z,100977.25
2022-09-01T23:14:28.886Z,100973.84
2022-09-01T23:16:57.319Z,100977.91
2022-09-01T23:19:25.876Z,100982.44
2022-09-01T23:21:54.602Z,100978.88
2022-09-01T23:24:23.071Z,100965.56
2022-09-01T23:26:51.486Z,100969.00
2022-09-01T23:29:22.035Z,100965.53
2022-09-01T23:31:51.466Z,100962.44
2022-09-01T23:34:19.746Z,100959.69
2022-09-01T23:36:48.368Z,100968.59
2022-09-01T23:39:16.877Z,100963.41
2022-09-01T23:41:45.202Z,100962.59
2022-09-01T23:44:14.334Z,100957.25
2022-09-01T23:46:46.997Z,100954.31
2022-09-01T23:49:17.210Z,100955.63
2022-09-01T23:51:46.746Z,100948.66
2022-09-01T23:54:15.539Z,100943.28
2022-09-01T23:56:43.838Z,100944.56
2022-09-01T23:59:12.076Z,100943.59
